Terminal Aerodrome Forecast
Issued by NWS

Home | Current Version | Previous Version | Text Only | Print | Product List | Glossary On
Versions: 1 2 3 4 5 6 7 8 9 10 11 12 13 14 15 16 17
000
FTUS41 KPBZ 271100 CCB
TAFFKL
TAF COR
KFKL 271130Z 2712/2812 VRB03KT 6SM BR SCT007 BKN015
      TEMPO 2712/2715 3SM BR BKN007
     FM271800 30008KT P6SM SCT025 BKN035
     FM280000 34005KT P6SM SCT035
      AMD LTD TO CLD VIS AND WIND=

USA.gov is the U.S. government's official web portal to all federal, state and local government web resources and services.